createdAt,value
2018-01-28T00:00:45.461Z,70.50
2018-01-28T00:03:13.798Z,70.70
2018-01-28T00:05:42.376Z,70.50
2018-01-28T00:08:10.716Z,70.80
2018-01-28T00:10:39.079Z,70.10
2018-01-28T00:13:07.443Z,70.10
2018-01-28T00:15:36.275Z,69.80
2018-01-28T00:18:04.870Z,69.60
2018-01-28T00:20:33.204Z,69.60
2018-01-28T00:23:01.646Z,69.10
2018-01-28T00:25:29.994Z,69.00
2018-01-28T00:27:58.837Z,68.50
2018-01-28T00:30:27.152Z,67.90
2018-01-28T00:32:55.514Z,68.20
2018-01-28T00:35:24.858Z,67.40
2018-01-28T00:37:53.378Z,67.50
2018-01-28T00:40:21.714Z,67.20
2018-01-28T00:42:50.104Z,66.80
2018-01-28T00:45:19.327Z,66.20
2018-01-28T00:47:47.674Z,66.40
2018-01-28T00:50:16.816Z,66.20
2018-01-28T00:52:45.166Z,65.60
2018-01-28T00:55:13.438Z,65.30
2018-01-28T00:57:42.513Z,64.70
2018-01-28T01:00:10.804Z,64.70
2018-01-28T01:02:39.925Z,64.40
2018-01-28T01:05:08.225Z,64.50
2018-01-28T01:07:36.524Z,64.10
2018-01-28T01:10:04.947Z,64.10
2018-01-28T01:12:34.003Z,64.00
2018-01-28T01:15:02.314Z,64.00
2018-01-28T01:17:31.471Z,63.70
2018-01-28T01:19:59.768Z,63.40
2018-01-28T01:22:28.053Z,63.60
2018-01-28T01:24:56.402Z,63.40
2018-01-28T01:27:24.684Z,63.30
2018-01-28T01:29:53.016Z,63.30
2018-01-28T01:32:22.077Z,63.20
2018-01-28T01:34:50.401Z,63.30
2018-01-28T01:37:18.799Z,64.10
2018-01-28T01:39:47.096Z,63.90
2018-01-28T01:42:15.386Z,63.20
2018-01-28T01:44:43.674Z,63.00
2018-01-28T01:47:12.000Z,62.90
2018-01-28T01:49:40.267Z,62.80
2018-01-28T01:52:08.569Z,62.80
2018-01-28T01:54:36.855Z,62.70
2018-01-28T01:57:05.159Z,62.50
2018-01-28T01:59:33.476Z,62.40
2018-01-28T02:02:01.802Z,62.10
2018-01-28T02:04:30.135Z,61.80
2018-01-28T02:06:58.563Z,61.80
2018-01-28T02:09:27.265Z,61.60
2018-01-28T02:11:56.104Z,61.60
2018-01-28T02:14:24.741Z,61.60
2018-01-28T02:16:54.769Z,61.60
2018-01-28T02:19:23.566Z,61.70
2018-01-28T02:21:52.306Z,62.60
2018-01-28T02:24:20.923Z,61.80
2018-01-28T02:26:49.987Z,61.70
2018-01-28T02:29:18.827Z,61.60
2018-01-28T02:31:47.719Z,61.60
2018-01-28T02:34:16.731Z,61.60
2018-01-28T02:36:46.614Z,61.50
2018-01-28T02:39:15.528Z,61.30
2018-01-28T02:41:44.094Z,61.10
2018-01-28T02:44:13.298Z,61.10
2018-01-28T02:46:42.029Z,61.00
2018-01-28T02:49:11.854Z,61.00
2018-01-28T02:51:40.554Z,61.00
2018-01-28T02:54:09.888Z,60.90
2018-01-28T02:56:38.262Z,60.90
2018-01-28T02:59:06.545Z,60.90
2018-01-28T03:01:34.866Z,61.60
2018-01-28T03:04:03.157Z,60.80
2018-01-28T03:06:31.473Z,60.70
2018-01-28T03:08:59.737Z,60.50
2018-01-28T03:11:28.161Z,60.30
2018-01-28T03:13:57.560Z,60.30
2018-01-28T03:16:25.904Z,60.40
2018-01-28T03:18:54.211Z,60.00
2018-01-28T03:21:23.305Z,60.00
2018-01-28T03:23:52.365Z,59.10
2018-01-28T03:26:20.646Z,60.70
2018-01-28T03:28:48.945Z,59.00
2018-01-28T03:31:17.205Z,58.70
2018-01-28T03:33:45.522Z,58.50
2018-01-28T03:36:13.817Z,58.30
2018-01-28T03:38:42.100Z,58.20
2018-01-28T03:41:10.403Z,58.00
2018-01-28T03:43:38.696Z,57.80
2018-01-28T03:46:07.045Z,57.80
2018-01-28T03:48:35.385Z,57.50
2018-01-28T03:51:04.499Z,56.90
2018-01-28T03:53:32.895Z,57.00
2018-01-28T03:56:01.190Z,56.80
2018-01-28T03:58:29.501Z,56.80
2018-01-28T04:00:57.791Z,56.80
2018-01-28T04:03:26.877Z,56.20
2018-01-28T04:05:55.340Z,56.10
2018-01-28T04:08:23.645Z,56.30
2018-01-28T04:10:51.959Z,56.30
2018-01-28T04:13:20.302Z,56.30
2018-01-28T04:15:48.583Z,56.10
2018-01-28T04:18:16.846Z,56.00
2018-01-28T04:20:45.165Z,55.80
2018-01-28T04:23:13.456Z,55.80
2018-01-28T04:25:41.784Z,55.40
2018-01-28T04:28:10.055Z,55.20
2018-01-28T04:30:39.202Z,55.00
2018-01-28T04:33:07.553Z,55.00
2018-01-28T04:35:35.841Z,54.60
2018-01-28T04:38:04.135Z,54.70
2018-01-28T04:40:32.428Z,54.70
2018-01-28T04:43:00.734Z,54.70
2018-01-28T04:45:29.024Z,54.80
2018-01-28T04:47:57.342Z,54.30
2018-01-28T04:50:25.624Z,54.10
2018-01-28T04:52:54.779Z,54.00
2018-01-28T04:55:23.074Z,54.00
2018-01-28T04:57:52.137Z,53.90
2018-01-28T05:00:20.446Z,54.00
2018-01-28T05:02:49.503Z,54.00
2018-01-28T05:05:18.629Z,53.90
2018-01-28T05:07:46.901Z,53.90
2018-01-28T05:10:15.245Z,54.10
2018-01-28T05:12:43.541Z,54.10
2018-01-28T05:15:11.870Z,54.10
2018-01-28T05:17:40.152Z,54.20
2018-01-28T05:20:09.217Z,54.30
2018-01-28T05:22:37.554Z,54.30
2018-01-28T05:25:05.829Z,54.30
2018-01-28T05:27:34.141Z,54.30
2018-01-28T05:30:02.419Z,54.40
2018-01-28T05:32:30.769Z,54.50
2018-01-28T05:34:59.015Z,54.50
2018-01-28T05:37:27.289Z,54.80
2018-01-28T05:39:55.624Z,54.70
2018-01-28T05:42:23.927Z,54.90
2018-01-28T05:44:52.222Z,54.80
2018-01-28T05:47:20.527Z,55.20
2018-01-28T05:49:48.876Z,55.00
2018-01-28T05:52:17.948Z,55.20
2018-01-28T05:54:46.249Z,55.20
2018-01-28T05:57:15.303Z,55.20
2018-01-28T05:59:43.575Z,55.30
2018-01-28T06:02:11.896Z,55.40
2018-01-28T06:04:40.973Z,55.60
2018-01-28T06:07:11.222Z,55.50
2018-01-28T06:09:39.494Z,55.70
2018-01-28T06:12:08.576Z,55.80
2018-01-28T06:14:36.864Z,55.80
2018-01-28T06:17:05.208Z,56.00
2018-01-28T06:19:33.484Z,56.10
2018-01-28T06:22:01.757Z,56.80
2018-01-28T06:24:30.082Z,56.20
2018-01-28T06:26:59.119Z,57.30
2018-01-28T06:29:27.558Z,57.30
2018-01-28T06:31:55.849Z,57.50
2018-01-28T06:34:24.524Z,58.20
2018-01-28T06:36:53.564Z,58.00
2018-01-28T06:39:21.840Z,57.70
2018-01-28T06:41:50.140Z,57.80
2018-01-28T06:44:18.416Z,57.90
2018-01-28T06:46:46.798Z,58.60
2018-01-28T06:49:15.490Z,58.00
2018-01-28T06:51:44.087Z,58.10
2018-01-28T06:54:13.342Z,58.20
2018-01-28T06:56:41.625Z,58.20
2018-01-28T06:59:09.941Z,58.30
2018-01-28T07:01:38.204Z,58.30
2018-01-28T07:04:06.485Z,58.50
2018-01-28T07:06:34.771Z,58.40
2018-01-28T07:09:03.320Z,58.60
2018-01-28T07:11:31.584Z,58.60
2018-01-28T07:13:59.891Z,58.70
2018-01-28T07:16:28.230Z,58.80
2018-01-28T07:18:57.252Z,59.20
2018-01-28T07:21:25.571Z,59.10
2018-01-28T07:23:53.841Z,59.20
2018-01-28T07:26:22.441Z,59.30
2018-01-28T07:28:51.493Z,59.10
2018-01-28T07:31:19.749Z,59.50
2018-01-28T07:33:48.073Z,59.70
2018-01-28T07:36:16.336Z,59.80
2018-01-28T07:38:44.640Z,59.90
2018-01-28T07:41:12.913Z,60.00
2018-01-28T07:43:41.203Z,60.00
2018-01-28T07:46:09.510Z,60.30
2018-01-28T07:48:38.361Z,60.30
2018-01-28T07:51:06.644Z,60.70
2018-01-28T07:53:35.006Z,60.70
2018-01-28T07:56:03.305Z,61.10
2018-01-28T07:58:32.212Z,61.00
2018-01-28T08:01:01.287Z,61.70
2018-01-28T08:03:29.576Z,61.00
2018-01-28T08:05:57.896Z,61.10
2018-01-28T08:08:26.199Z,61.40
2018-01-28T08:10:57.559Z,61.50
2018-01-28T08:13:37.337Z,61.60
2018-01-28T08:16:05.893Z,61.70
2018-01-28T08:18:34.162Z,61.80
2018-01-28T08:21:02.414Z,61.90
2018-01-28T08:23:30.708Z,62.00
2018-01-28T08:35:03.186Z,61.10
2018-01-28T08:37:32.564Z,60.90
2018-01-28T08:40:00.828Z,60.90
2018-01-28T08:42:29.093Z,60.90
2018-01-28T08:44:57.413Z,60.70
2018-01-28T08:47:26.873Z,60.80
2018-01-28T08:49:55.166Z,60.90
2018-01-28T08:52:23.445Z,60.90
2018-01-28T08:54:51.798Z,60.60
2018-01-28T08:57:20.133Z,60.60
2018-01-28T08:59:48.821Z,60.40
2018-01-28T09:02:17.097Z,60.50
2018-01-28T09:04:45.374Z,60.30
2018-01-28T09:07:13.672Z,60.10
2018-01-28T09:09:42.715Z,60.00
2018-01-28T09:12:11.015Z,60.10
2018-01-28T09:14:39.288Z,60.00
2018-01-28T09:17:07.916Z,60.00
2018-01-28T09:19:36.982Z,60.00
2018-01-28T09:22:05.251Z,60.10
2018-01-28T09:24:33.530Z,59.90
2018-01-28T09:27:03.020Z,59.90
2018-01-28T09:29:31.663Z,59.90
2018-01-28T09:31:59.944Z,59.70
2018-01-28T09:34:28.349Z,59.50
2018-01-28T09:36:57.701Z,59.40
2018-01-28T09:39:26.074Z,59.40
2018-01-28T09:41:54.413Z,59.50
2018-01-28T09:44:22.677Z,58.90
2018-01-28T09:46:51.229Z,59.20
2018-01-28T09:49:21.234Z,59.20
2018-01-28T09:51:49.500Z,59.20
2018-01-28T09:54:17.885Z,59.20
2018-01-28T09:56:46.175Z,59.30
2018-01-28T09:59:14.473Z,59.20
2018-01-28T10:01:43.538Z,59.10
2018-01-28T10:04:26.003Z,58.90
2018-01-28T10:06:54.400Z,59.50
2018-01-28T10:09:22.678Z,58.90
2018-01-28T10:11:51.289Z,58.60
2018-01-28T10:14:19.620Z,58.40
2018-01-28T10:16:48.217Z,58.50
2018-01-28T10:19:16.857Z,58.60
2018-01-28T10:21:46.089Z,58.70
2018-01-28T10:24:15.500Z,58.20
2018-01-28T10:26:44.570Z,58.60
2018-01-28T10:29:13.192Z,58.50
2018-01-28T10:31:42.566Z,58.80
2018-01-28T10:34:11.431Z,58.60
2018-01-28T10:36:40.145Z,58.40
2018-01-28T10:39:10.603Z,58.70
2018-01-28T10:41:39.479Z,58.70
2018-01-28T10:44:08.506Z,58.40
2018-01-28T10:46:36.766Z,58.00
2018-01-28T10:49:05.201Z,58.20
2018-01-28T10:51:34.295Z,57.70
2018-01-28T10:54:02.858Z,57.70
2018-01-28T10:56:31.154Z,57.60
2018-01-28T10:58:59.495Z,57.50
2018-01-28T11:01:27.857Z,57.30
2018-01-28T11:03:56.171Z,57.30
2018-01-28T11:08:59.824Z,57.80
2018-01-28T11:11:28.144Z,57.40
2018-01-28T11:13:56.463Z,57.50
2018-01-28T11:16:24.765Z,57.40
2018-01-28T11:18:54.094Z,57.30
2018-01-28T11:21:22.385Z,57.30
2018-01-28T11:23:51.518Z,57.40
2018-01-28T11:26:19.826Z,57.40
2018-01-28T11:28:48.188Z,57.50
2018-01-28T11:31:16.481Z,57.50
2018-01-28T11:33:44.773Z,57.50
2018-01-28T11:36:13.129Z,57.60
2018-01-28T11:38:42.287Z,57.70
2018-01-28T11:41:11.846Z,57.80
2018-01-28T11:43:40.912Z,57.60
2018-01-28T11:46:09.268Z,57.60
2018-01-28T11:48:37.585Z,57.30
2018-01-28T11:51:06.651Z,57.40
2018-01-28T11:53:36.130Z,57.30
2018-01-28T11:56:04.426Z,57.10
2018-01-28T11:58:32.751Z,56.90
2018-01-28T12:01:02.931Z,56.40
2018-01-28T12:03:31.248Z,56.50
2018-01-28T12:06:00.288Z,56.50
2018-01-28T12:08:28.934Z,56.10
2018-01-28T12:10:58.010Z,55.50
2018-01-28T12:13:26.412Z,55.60
2018-01-28T12:15:54.792Z,56.20
2018-01-28T12:18:23.837Z,55.60
2018-01-28T12:20:52.268Z,55.60
2018-01-28T12:23:21.420Z,55.90
2018-01-28T12:25:49.748Z,55.70
2018-01-28T12:28:17.997Z,55.90
2018-01-28T12:30:46.351Z,56.00
2018-01-28T12:33:15.382Z,56.20
2018-01-28T12:35:43.738Z,56.20
2018-01-28T12:38:12.609Z,56.40
2018-01-28T12:40:40.943Z,56.20
2018-01-28T12:43:10.024Z,56.20
2018-01-28T12:45:38.997Z,56.10
2018-01-28T12:48:07.625Z,56.30
2018-01-28T12:50:35.891Z,56.40
2018-01-28T12:55:47.892Z,56.40
2018-01-28T12:58:16.170Z,56.40
2018-01-28T13:00:44.528Z,56.30
2018-01-28T13:03:12.794Z,56.30
2018-01-28T13:05:41.188Z,56.30
2018-01-28T13:08:09.460Z,56.40
2018-01-28T13:10:38.089Z,56.50
2018-01-28T13:13:07.153Z,56.50
2018-01-28T13:15:36.309Z,57.20
2018-01-28T13:18:04.666Z,56.60
2018-01-28T13:20:32.989Z,56.50
2018-01-28T13:23:01.349Z,56.40
2018-01-28T13:25:30.522Z,56.50
2018-01-28T13:27:58.842Z,56.50
2018-01-28T13:30:27.116Z,56.50
2018-01-28T13:32:55.772Z,56.60
2018-01-28T13:35:24.190Z,56.60
2018-01-28T13:37:53.167Z,57.30
2018-01-28T13:40:21.494Z,56.60
2018-01-28T13:42:49.861Z,56.60
2018-01-28T13:45:18.169Z,56.60
2018-01-28T13:47:46.596Z,56.70
2018-01-28T13:50:14.998Z,56.80
2018-01-28T13:52:43.275Z,56.80
2018-01-28T13:55:11.552Z,56.80
2018-01-28T13:57:39.910Z,56.90
2018-01-28T14:00:08.218Z,56.80
2018-01-28T14:02:36.526Z,56.90
2018-01-28T14:05:05.929Z,56.90
2018-01-28T14:07:35.066Z,57.40
2018-01-28T14:10:03.441Z,57.00
2018-01-28T14:12:31.723Z,57.10
2018-01-28T14:15:00.063Z,57.10
2018-01-28T14:17:28.380Z,57.00
2018-01-28T14:19:56.709Z,57.00
2018-01-28T14:22:24.981Z,57.00
2018-01-28T14:24:53.359Z,57.10
2018-01-28T14:27:21.703Z,57.10
2018-01-28T14:29:49.993Z,57.10
2018-01-28T14:32:18.515Z,57.00
2018-01-28T14:34:46.949Z,57.00
2018-01-28T14:37:15.323Z,57.30
2018-01-28T14:39:43.697Z,57.20
2018-01-28T14:42:12.104Z,57.10
2018-01-28T14:44:40.560Z,57.00
2018-01-28T14:47:08.854Z,57.10
2018-01-28T14:49:37.191Z,57.10
2018-01-28T14:52:06.233Z,57.10
2018-01-28T14:54:34.555Z,57.20
2018-01-28T14:57:03.671Z,57.20
2018-01-28T14:59:32.874Z,57.10
2018-01-28T15:02:01.225Z,57.40
2018-01-28T15:04:45.448Z,57.20
2018-01-28T15:07:14.526Z,57.20
2018-01-28T15:09:42.820Z,57.20
2018-01-28T15:12:11.210Z,57.10
2018-01-28T15:14:39.519Z,57.10
2018-01-28T15:17:08.606Z,57.30
2018-01-28T15:19:36.941Z,57.30
2018-01-28T15:22:05.323Z,57.30
2018-01-28T15:24:33.838Z,57.30
2018-01-28T15:27:02.181Z,57.40
2018-01-28T15:29:30.493Z,57.30
2018-01-28T15:31:58.872Z,57.30
2018-01-28T15:34:27.273Z,57.30
2018-01-28T15:36:55.589Z,57.50
2018-01-28T15:39:23.897Z,57.30
2018-01-28T15:41:52.237Z,57.50
2018-01-28T15:44:20.581Z,57.40
2018-01-28T15:46:50.403Z,57.40
2018-01-28T15:49:18.724Z,57.50
2018-01-28T15:51:47.096Z,57.60
2018-01-28T15:54:17.141Z,57.60
2018-01-28T15:56:45.491Z,57.60
2018-01-28T15:59:13.942Z,57.70
2018-01-28T16:01:42.264Z,58.30
2018-01-28T16:04:10.659Z,58.40
2018-01-28T16:06:38.956Z,58.20
2018-01-28T16:09:07.278Z,57.70
2018-01-28T16:11:35.572Z,57.80
2018-01-28T16:14:03.904Z,57.70
2018-01-28T16:16:32.201Z,57.70
2018-01-28T16:19:00.585Z,57.80
2018-01-28T16:21:31.140Z,57.80
2018-01-28T16:23:59.437Z,58.10
2018-01-28T16:26:27.749Z,58.00
2018-01-28T16:28:56.018Z,57.90
2018-01-28T16:31:24.326Z,58.00
2018-01-28T16:33:52.714Z,58.00
2018-01-28T16:36:21.027Z,58.00
2018-01-28T16:38:49.324Z,58.00
2018-01-28T16:41:17.635Z,58.00
2018-01-28T16:43:47.783Z,58.20
2018-01-28T16:46:16.320Z,58.10
2018-01-28T16:48:44.763Z,58.10
2018-01-28T16:51:13.055Z,58.20
2018-01-28T16:53:41.577Z,58.20
2018-01-28T16:56:10.041Z,58.20
2018-01-28T16:58:38.523Z,58.30
2018-01-28T17:01:07.051Z,58.30
2018-01-28T17:03:35.446Z,58.40
2018-01-28T17:06:03.750Z,58.30
2018-01-28T17:08:32.125Z,58.40
2018-01-28T17:11:00.448Z,58.50
2018-01-28T17:13:29.533Z,58.50
2018-01-28T17:15:58.609Z,58.50
2018-01-28T17:18:26.976Z,58.60
2018-01-28T17:20:55.314Z,58.50
2018-01-28T17:23:24.380Z,58.60
2018-01-28T17:25:52.655Z,58.60
2018-01-28T17:28:21.143Z,58.60
2018-01-28T17:30:49.471Z,58.60
2018-01-28T17:33:17.846Z,58.60
2018-01-28T17:35:49.730Z,58.60
2018-01-28T17:38:18.459Z,58.60
2018-01-28T17:40:47.560Z,58.60
2018-01-28T17:43:16.637Z,58.60
2018-01-28T17:45:44.931Z,58.60
2018-01-28T17:48:13.261Z,58.60
2018-01-28T17:50:41.610Z,58.70
2018-01-28T17:53:09.857Z,58.70
2018-01-28T17:55:38.179Z,58.60
2018-01-28T17:58:06.461Z,58.70
2018-01-28T18:00:34.807Z,58.70
2018-01-28T18:03:03.879Z,58.70
2018-01-28T18:05:32.181Z,58.80
2018-01-28T18:08:00.529Z,58.70
2018-01-28T18:10:28.835Z,58.70
2018-01-28T18:12:57.955Z,58.70
2018-01-28T18:15:27.177Z,58.70
2018-01-28T18:17:55.600Z,58.70
2018-01-28T18:20:23.875Z,58.80
2018-01-28T18:22:52.222Z,58.70
2018-01-28T18:25:20.500Z,58.70
2018-01-28T18:27:49.765Z,58.80
2018-01-28T18:30:18.084Z,58.70
2018-01-28T18:32:46.362Z,58.60
2018-01-28T18:35:14.754Z,58.60
2018-01-28T18:37:43.888Z,58.60
2018-01-28T18:40:13.002Z,58.20
2018-01-28T18:42:42.078Z,58.70
2018-01-28T18:45:11.230Z,59.30
2018-01-28T18:47:40.407Z,58.70
2018-01-28T18:50:08.710Z,58.70
2018-01-28T18:52:37.090Z,58.70
2018-01-28T18:55:07.419Z,58.80
2018-01-28T18:57:35.796Z,58.80
2018-01-28T19:00:04.094Z,58.80
2018-01-28T19:02:32.493Z,58.80
2018-01-28T19:05:00.905Z,58.80
2018-01-28T19:07:29.343Z,58.70
2018-01-28T19:09:57.739Z,58.70
2018-01-28T19:12:27.101Z,58.70
2018-01-28T19:14:56.222Z,58.80
2018-01-28T19:17:24.972Z,58.70
2018-01-28T19:19:53.707Z,58.60
2018-01-28T19:22:22.161Z,58.50
2018-01-28T19:24:50.522Z,58.50
2018-01-28T19:27:18.884Z,58.40
2018-01-28T19:29:47.198Z,58.40
2018-01-28T19:32:15.759Z,58.30
2018-01-28T19:34:45.000Z,58.30
2018-01-28T19:37:13.744Z,58.20
2018-01-28T19:39:42.123Z,58.10
2018-01-28T19:42:10.588Z,58.10
2018-01-28T19:44:40.251Z,58.00
2018-01-28T19:47:09.485Z,57.90
2018-01-28T19:49:38.558Z,57.90
2018-01-28T19:52:06.874Z,57.90
2018-01-28T19:54:35.831Z,57.80
2018-01-28T19:57:04.218Z,57.80
2018-01-28T19:59:33.379Z,57.70
2018-01-28T20:02:02.867Z,57.70
2018-01-28T20:04:31.194Z,57.70
2018-01-28T20:06:59.646Z,57.70
2018-01-28T20:09:33.919Z,57.80
2018-01-28T20:12:02.359Z,57.80
2018-01-28T20:14:30.754Z,57.80
2018-01-28T20:16:59.111Z,57.70
2018-01-28T20:19:27.573Z,57.60
2018-01-28T20:21:56.108Z,57.60
2018-01-28T20:24:25.112Z,57.50
2018-01-28T20:26:53.399Z,57.60
2018-01-28T20:29:23.211Z,57.60
2018-01-28T20:31:51.615Z,57.60
2018-01-28T20:34:20.086Z,57.70
2018-01-28T20:36:49.267Z,57.70
2018-01-28T20:39:18.372Z,57.60
2018-01-28T20:41:47.522Z,57.70
2018-01-28T20:44:16.405Z,57.70
2018-01-28T20:46:44.849Z,57.60
2018-01-28T20:49:13.294Z,57.60
2018-01-28T20:51:41.986Z,57.70
2018-01-28T20:54:10.285Z,57.70
2018-01-28T20:56:39.411Z,57.70
2018-01-28T20:59:07.760Z,57.70
2018-01-28T21:01:36.862Z,57.70
2018-01-28T21:04:05.948Z,57.90
2018-01-28T21:06:35.011Z,57.80
2018-01-28T21:09:03.331Z,57.80
2018-01-28T21:11:32.377Z,57.90
2018-01-28T21:14:00.731Z,57.90
2018-01-28T21:16:29.027Z,57.90
2018-01-28T21:18:57.331Z,57.80
2018-01-28T21:21:25.611Z,57.90
2018-01-28T21:36:43.549Z,58.40
2018-01-28T21:39:11.855Z,58.30
2018-01-28T21:41:40.934Z,57.90
2018-01-28T21:44:09.254Z,57.90
2018-01-28T21:46:37.623Z,57.70
2018-01-28T21:49:06.741Z,57.70
2018-01-28T21:51:35.837Z,57.70
2018-01-28T21:54:04.128Z,58.30
2018-01-28T21:56:32.523Z,57.80
2018-01-28T21:59:00.877Z,57.80
2018-01-28T22:01:29.172Z,57.90
2018-01-28T22:03:57.529Z,57.90
2018-01-28T22:06:25.864Z,58.00
2018-01-28T22:08:54.969Z,58.00
2018-01-28T22:11:23.327Z,58.00
2018-01-28T22:13:51.590Z,58.00
2018-01-28T22:16:19.940Z,58.10
2018-01-28T22:18:48.226Z,58.10
2018-01-28T22:21:16.549Z,58.00
2018-01-28T22:23:45.652Z,58.20
2018-01-28T22:26:14.737Z,58.20
2018-01-28T22:28:43.025Z,58.20
2018-01-28T22:31:12.081Z,58.20
2018-01-28T22:33:40.434Z,58.30
2018-01-28T22:36:08.773Z,58.30
2018-01-28T22:38:37.842Z,58.40
2018-01-28T22:41:06.117Z,58.40
2018-01-28T22:43:34.417Z,58.40
2018-01-28T22:46:02.720Z,58.40
2018-01-28T22:48:31.773Z,58.50
2018-01-28T22:51:00.089Z,58.50
2018-01-28T22:53:29.141Z,58.70
2018-01-28T22:55:57.480Z,58.50
2018-01-28T22:58:25.765Z,58.60
2018-01-28T23:00:54.095Z,58.50
2018-01-28T23:03:22.471Z,58.60
2018-01-28T23:05:50.734Z,58.50
2018-01-28T23:08:19.043Z,58.60
2018-01-28T23:10:47.310Z,58.70
2018-01-28T23:13:15.613Z,58.70
2018-01-28T23:15:43.904Z,58.80
2018-01-28T23:18:12.209Z,58.90
2018-01-28T23:20:40.514Z,58.90
2018-01-28T23:23:08.812Z,58.90
2018-01-28T23:25:37.889Z,59.20
2018-01-28T23:28:06.170Z,59.10
2018-01-28T23:30:34.459Z,59.10
2018-01-28T23:33:02.731Z,59.10
2018-01-28T23:35:31.040Z,59.20
2018-01-28T23:37:59.332Z,59.10
2018-01-28T23:40:27.644Z,59.10
2018-01-28T23:42:55.959Z,59.30
2018-01-28T23:45:24.221Z,59.30
2018-01-28T23:47:52.500Z,59.30
2018-01-28T23:50:20.757Z,59.40
2018-01-28T23:52:49.064Z,59.40
2018-01-28T23:55:18.104Z,60.00
2018-01-28T23:57:46.458Z,59.40
